リヤド の空港の天気 - METARとTAF

キング・ハーリド国際空港(リヤド) ( OERK / RUH ) - サウジアラビア リヤド
飛行場実況気象(Metar)
観測時間01/20 20:00 AST (01/20 17:00 UTC)
風向・風速北北東 3m/s
視程10km以上
天気現象
なし
気温15℃
湿度55%
気圧1020hPa
METAROERK 201700Z 02006KT CAVOK 15/06 Q1020 NOSIG
過去の天気等 Google飛行場航空写真 Wunderground天気予報

過去48時間のMETAR

飛行場予報(TAF)
発表時間: 1/20 20:00 AST (1/20 17:00 UTC)
予報対象時間: 20日21時 AST ~ 22日3時 AST
風向・風速北 6m/s
視程7,000m
なし
20日21時 AST ~ 21日9時 AST に一時的に
視程4,000m
天気現象風塵
TAF OERK 201700Z 2018/2124 36012KT 7000 NSC
TEMPO 2018/2106 4000 DU